Time,TemperatureF,DewpointF,PressureIn,WindDirection,WindDirectionDegrees,WindSpeedMPH,WindSpeedGustMPH,Humidity,HourlyPrecipIn,Conditions,Clouds,dailyrainin,SolarRadiationWatts/m^2,SoftwareType,DateUTC
2013-06-14 00:01:00,63.4,59.8,29.90,North,0,0.0,1.0,88,0.00,,CLR,0.20,0.00,VWS V14.01,2013-06-14 04:01:00,
2013-06-14 00:06:00,63.4,59.8,29.90,North,0,0.0,1.0,88,0.00,,CLR,0.20,0.00,VWS V14.01,2013-06-14 04:06:00,
2013-06-14 00:11:00,63.2,59.6,29.90,North,0,0.0,1.0,88,0.00,,CLR,0.20,0.00,VWS V14.01,2013-06-14 04:11:00,
2013-06-14 00:16:00,63.4,59.8,29.89,North,0,0.0,1.0,88,0.00,,CLR,0.20,0.00,VWS V14.01,2013-06-14 04:16:00,
2013-06-14 00:21:00,63.2,59.6,29.89,North,0,0.0,1.0,88,0.00,,CLR,0.20,0.00,VWS V14.01,2013-06-14 04:21:00,
2013-06-14 00:26:00,63.2,59.3,29.89,North,0,0.0,1.0,87,0.00,,CLR,0.20,0.00,VWS V14.01,2013-06-14 04:26:00,
2013-06-14 00:31:00,63.2,59.3,29.89,North,0,0.0,1.0,87,0.00,,CLR,0.20,0.00,VWS V14.01,2013-06-14 04:31:00,
2013-06-14 00:36:00,63.2,59.0,29.89,North,0,0.0,1.0,86,0.00,,CLR,0.20,0.00,VWS V14.01,2013-06-14 04:36:00,
2013-06-14 00:41:00,63.4,58.8,29.89,North,0,0.0,1.0,85,0.00,,CLR,0.20,0.00,VWS V14.01,2013-06-14 04:41:00,
2013-06-14 00:46:00,63.5,58.9,29.89,North,0,0.0,1.0,85,0.00,,CLR,0.20,0.00,VWS V14.01,2013-06-14 04:46:00,
2013-06-14 00:51:00,63.5,58.6,29.89,North,0,0.0,1.0,84,0.00,,CLR,0.20,0.00,VWS V14.01,2013-06-14 04:51:00,
2013-06-14 00:56:00,63.7,58.8,29.89,North,0,0.0,1.0,84,0.00,,CLR,0.20,0.00,VWS V14.01,2013-06-14 04:56:00,
2013-06-14 01:00:00,63.7,58.8,29.89,North,0,0.0,1.0,84,0.00,,SCT085,0.00,0.00,VWS V14.01,2013-06-14 05:00:00,
2013-06-14 01:01:00,63.7,58.8,29.89,North,0,0.0,1.0,84,0.00,,CLR,0.00,0.00,VWS V14.01,2013-06-14 05:01:00,
2013-06-14 01:06:00,63.7,58.1,29.89,ENE,62,0.0,10.0,82,0.00,,CLR,0.00,0.00,VWS V14.01,2013-06-14 05:06:00,
2013-06-14 01:10:00,63.9,58.0,29.89,NE,56,15.0,16.0,81,0.00,,SCT085,0.00,0.00,VWS V14.01,2013-06-14 05:10:00,
2013-06-14 01:11:00,63.9,58.0,29.89,NE,56,6.0,16.0,81,0.00,,CLR,0.00,0.00,VWS V14.01,2013-06-14 05:11:00,
2013-06-14 01:16:00,64.3,57.7,29.88,ENE,66,0.0,16.0,79,0.00,,CLR,0.00,0.00,VWS V14.01,2013-06-14 05:16:00,
2013-06-14 01:20:00,64.7,57.7,29.88,ENE,66,0.0,16.0,78,0.00,,SCT085,0.00,0.00,VWS V14.01,2013-06-14 05:20:00,
2013-06-14 01:21:00,64.7,57.7,29.88,ENE,66,0.0,1.0,78,0.00,,CLR,0.00,0.00,VWS V14.01,2013-06-14 05:21:00,
2013-06-14 01:26:00,64.8,57.4,29.88,ENE,66,0.0,7.0,77,0.00,,CLR,0.00,0.00,VWS V14.01,2013-06-14 05:26:00,
2013-06-14 01:30:00,65.0,57.3,29.87,ESE,107,0.0,10.0,76,0.00,,SCT085,0.00,0.00,VWS V14.01,2013-06-14 05:30:00,
2013-06-14 01:31:00,65.2,57.5,29.87,East,97,0.0,1.0,76,0.00,,CLR,0.00,0.00,VWS V14.01,2013-06-14 05:31:00,
2013-06-14 01:36:00,65.3,57.2,29.87,ENE,65,0.0,7.0,75,0.00,,CLR,0.00,0.00,VWS V14.01,2013-06-14 05:36:00,
2013-06-14 01:40:00,65.5,57.0,29.87,ENE,78,3.0,10.0,74,0.00,,SCT085,0.00,0.00,VWS V14.01,2013-06-14 05:40:00,
2013-06-14 01:41:00,65.5,57.0,29.87,ENE,78,0.0,4.0,74,0.00,,CLR,0.00,0.00,VWS V14.01,2013-06-14 05:41:00,
2013-06-14 01:46:00,65.6,57.1,29.87,ENE,73,6.0,10.0,74,0.00,,CLR,0.00,0.00,VWS V14.01,2013-06-14 05:46:00,
2013-06-14 01:50:00,65.8,56.9,29.87,East,93,0.0,10.0,73,0.00,,SCT085,0.00,0.00,VWS V14.01,2013-06-14 05:50:00,
2013-06-14 01:51:00,65.8,56.9,29.87,East,93,0.0,1.0,73,0.00,,CLR,0.00,0.00,VWS V14.01,2013-06-14 05:51:00,
2013-06-14 01:56:00,66.0,57.1,29.87,East,93,0.0,7.0,73,0.00,,CLR,0.00,0.00,VWS V14.01,2013-06-14 05:56:00,
2013-06-14 02:00:00,66.0,56.7,29.86,ENE,75,3.0,7.0,72,0.00,,SCT085,0.00,0.00,VWS V14.01,2013-06-14 06:00:00,
2013-06-14 02:01:00,66.0,56.7,29.86,ENE,75,0.0,4.0,72,0.00,,CLR,0.00,0.00,VWS V14.01,2013-06-14 06:01:00,
2013-06-14 02:06:00,66.1,56.8,29.86,ENE,65,0.0,16.0,72,0.00,,CLR,0.00,0.00,VWS V14.01,2013-06-14 06:06:00,
2013-06-14 02:10:00,66.1,56.8,29.86,ENE,68,0.0,16.0,72,0.00,,SCT085,0.00,0.00,VWS V14.01,2013-06-14 06:10:00,
2013-06-14 02:11:00,66.1,56.8,29.86,ENE,64,0.0,1.0,72,0.00,,CLR,0.00,0.00,VWS V14.01,2013-06-14 06:11:00,
2013-06-14 02:16:00,66.1,56.8,29.87,ENE,68,0.0,7.0,72,0.00,,CLR,0.00,0.00,VWS V14.01,2013-06-14 06:16:00,
2013-06-14 02:20:00,66.1,56.8,29.87,ENE,68,0.0,7.0,72,0.00,,SCT085,0.00,0.00,VWS V14.01,2013-06-14 06:20:00,
2013-06-14 02:21:00,66.1,56.8,29.87,ENE,68,6.0,7.0,72,0.00,,CLR,0.00,0.00,VWS V14.01,2013-06-14 06:21:00,
2013-06-14 02:26:00,66.1,56.8,29.87,ENE,68,0.0,7.0,72,0.00,,CLR,0.00,0.00,VWS V14.01,2013-06-14 06:26:00,
2013-06-14 02:30:00,66.1,56.8,29.88,ENE,68,0.0,7.0,72,0.00,,SCT085,0.00,0.00,VWS V14.01,2013-06-14 06:30:00,
2013-06-14 02:31:00,66.1,56.8,29.88,ENE,68,0.0,1.0,72,0.00,,CLR,0.00,0.00,VWS V14.01,2013-06-14 06:31:00,
2013-06-14 02:36:00,66.1,57.2,29.88,ENE,64,0.0,1.0,73,0.00,,CLR,0.00,0.00,VWS V14.01,2013-06-14 06:36:00,
2013-06-14 02:40:00,66.0,57.5,29.88,ENE,68,0.0,1.0,74,0.00,,SCT085,0.00,0.00,VWS V14.01,2013-06-14 06:40:00,
2013-06-14 02:41:00,66.0,57.5,29.88,ENE,68,0.0,1.0,74,0.00,,CLR,0.00,0.00,VWS V14.01,2013-06-14 06:41:00,
2013-06-14 02:46:00,65.8,57.3,29.89,ENE,68,0.0,1.0,74,0.00,,CLR,0.00,0.00,VWS V14.01,2013-06-14 06:46:00,
2013-06-14 02:50:00,65.6,57.1,29.89,ENE,68,0.0,4.0,74,0.00,,SCT085,0.00,0.00,VWS V14.01,2013-06-14 06:50:00,
2013-06-14 02:51:00,65.6,57.1,29.89,ENE,68,0.0,1.0,74,0.00,,CLR,0.00,0.00,VWS V14.01,2013-06-14 06:51:00,
2013-06-14 02:56:00,65.6,56.7,29.89,ENE,68,0.0,1.0,73,0.00,,CLR,0.00,0.00,VWS V14.01,2013-06-14 06:56:00,
2013-06-14 03:00:00,65.6,57.1,29.89,ENE,68,0.0,1.0,74,0.00,,SCT085,0.00,0.00,VWS V14.01,2013-06-14 07:00:00,
2013-06-14 03:01:00,65.6,57.1,29.89,ENE,68,0.0,1.0,74,0.00,,BKN090,0.00,0.00,VWS V14.01,2013-06-14 07:01:00,
2013-06-14 03:06:00,65.6,57.1,29.89,ENE,68,0.0,1.0,74,0.00,,BKN090,0.00,0.00,VWS V14.01,2013-06-14 07:06:00,
2013-06-14 03:10:00,65.5,57.0,29.89,ENE,68,0.0,1.0,74,0.00,,SCT085,0.00,0.00,VWS V14.01,2013-06-14 07:10:00,
2013-06-14 03:11:00,65.5,57.0,29.89,ENE,68,0.0,1.0,74,0.00,,BKN090,0.00,0.00,VWS V14.01,2013-06-14 07:11:00,
2013-06-14 03:16:00,65.6,57.5,29.90,ENE,68,0.0,1.0,75,0.00,,BKN090,0.00,0.00,VWS V14.01,2013-06-14 07:16:00,
2013-06-14 03:20:00,65.6,57.5,29.90,ENE,68,0.0,1.0,75,0.00,,SCT085,0.00,0.00,VWS V14.01,2013-06-14 07:20:00,
2013-06-14 03:21:00,65.6,57.5,29.90,ENE,68,0.0,1.0,75,0.00,,BKN090,0.00,0.00,VWS V14.01,2013-06-14 07:21:00,
2013-06-14 03:26:00,65.6,57.5,29.90,ENE,68,0.0,1.0,75,0.00,,BKN090,0.00,0.00,VWS V14.01,2013-06-14 07:26:00,
2013-06-14 03:30:00,65.6,57.5,29.88,ENE,68,0.0,1.0,75,0.00,,SCT085,0.00,0.00,VWS V14.01,2013-06-14 07:30:00,
2013-06-14 03:31:00,65.6,57.5,29.88,ENE,68,0.0,1.0,75,0.00,,BKN090,0.00,0.00,VWS V14.01,2013-06-14 07:31:00,
2013-06-14 03:36:00,65.6,57.5,29.88,ENE,68,0.0,1.0,75,0.00,,BKN090,0.00,0.00,VWS V14.01,2013-06-14 07:36:00,
2013-06-14 03:40:00,65.6,57.5,29.88,ENE,68,6.0,7.0,75,0.00,,SCT085,0.00,0.00,VWS V14.01,2013-06-14 07:40:00,
2013-06-14 03:41:00,65.6,57.5,29.88,ENE,68,3.0,7.0,75,0.00,,BKN090,0.00,0.00,VWS V14.01,2013-06-14 07:41:00,
2013-06-14 03:46:00,65.8,57.3,29.85,East,85,0.0,13.0,74,0.00,,BKN090,0.00,0.00,VWS V14.01,2013-06-14 07:46:00,
2013-06-14 03:50:00,65.8,57.3,29.85,East,100,0.0,13.0,74,0.00,,SCT085,0.00,0.00,VWS V14.01,2013-06-14 07:50:00,
2013-06-14 03:51:00,65.8,57.3,29.85,East,100,0.0,1.0,74,0.00,,BKN090,0.00,0.00,VWS V14.01,2013-06-14 07:51:00,
2013-06-14 03:56:00,66.0,57.1,29.85,ESE,103,6.0,19.0,73,0.00,,BKN090,0.00,0.00,VWS V14.01,2013-06-14 07:56:00,
2013-06-14 04:00:00,66.1,56.8,29.85,ENE,69,0.0,19.0,72,0.00,,SCT085,0.00,0.00,VWS V14.01,2013-06-14 08:00:00,
2013-06-14 04:01:00,66.1,56.8,29.85,ENE,69,0.0,1.0,72,0.00,,SCT085,0.00,0.00,VWS V14.01,2013-06-14 08:01:00,
2013-06-14 04:06:00,66.3,57.0,29.85,NE,47,0.0,10.0,72,0.00,,SCT085,0.00,0.00,VWS V14.01,2013-06-14 08:06:00,
2013-06-14 04:10:00,66.4,57.1,29.85,NE,47,0.0,10.0,72,0.00,,SCT085,0.00,0.00,VWS V14.01,2013-06-14 08:10:00,
2013-06-14 04:11:00,66.4,57.1,29.85,NE,47,0.0,1.0,72,0.00,,SCT085,0.00,0.00,VWS V14.01,2013-06-14 08:11:00,
2013-06-14 04:17:00,66.6,57.3,29.87,NE,54,0.0,1.0,72,0.00,,,0.00,0.00,VWS V14.01,2013-06-14 08:17:00,
2013-06-14 04:22:00,66.6,57.3,29.87,NE,54,0.0,1.0,72,0.00,,SCT085,0.00,0.00,VWS V14.01,2013-06-14 08:22:00,
2013-06-14 04:27:00,66.6,57.7,29.87,NE,54,0.0,1.0,73,0.00,,SCT085,0.00,0.00,VWS V14.01,2013-06-14 08:27:00,
2013-06-14 04:32:00,66.6,57.7,29.87,NE,54,0.0,1.0,73,0.00,,SCT085,0.00,0.00,VWS V14.01,2013-06-14 08:32:00,
2013-06-14 04:37:00,66.6,57.7,29.87,NE,54,0.0,1.0,73,0.00,,SCT085,0.00,0.00,VWS V14.01,2013-06-14 08:37:00,
2013-06-14 04:42:00,66.6,57.7,29.87,NE,54,0.0,1.0,73,0.00,,SCT085,0.00,0.00,VWS V14.01,2013-06-14 08:42:00,
2013-06-14 04:47:00,66.6,57.7,29.86,NE,54,0.0,1.0,73,0.00,,SCT085,0.00,0.00,VWS V14.01,2013-06-14 08:47:00,
2013-06-14 04:52:00,66.4,57.5,29.86,NE,54,0.0,1.0,73,0.00,,SCT085,0.00,0.00,VWS V14.01,2013-06-14 08:52:00,
2013-06-14 04:57:00,66.4,57.5,29.86,NE,54,0.0,1.0,73,0.00,,SCT085,0.00,0.00,VWS V14.01,2013-06-14 08:57:00,
2013-06-14 05:02:00,66.4,57.5,29.85,NE,54,0.0,1.0,73,0.00,,BKN100,0.00,0.00,VWS V14.01,2013-06-14 09:02:00,
2013-06-14 05:07:00,66.4,57.5,29.85,NE,54,0.0,1.0,73,0.00,,BKN100,0.00,0.00,VWS V14.01,2013-06-14 09:07:00,
2013-06-14 05:12:00,66.4,57.5,29.85,NE,54,0.0,1.0,73,0.00,,BKN100,0.00,0.00,VWS V14.01,2013-06-14 09:12:00,
2013-06-14 05:17:00,66.6,57.7,29.86,NE,54,0.0,1.0,73,0.00,,BKN100,0.00,0.00,VWS V14.01,2013-06-14 09:17:00,
2013-06-14 05:22:00,66.6,58.1,29.86,ENE,62,0.0,10.0,74,0.00,,BKN100,0.00,0.00,VWS V14.01,2013-06-14 09:22:00,
2013-06-14 05:27:00,66.4,58.2,29.86,ESE,120,0.0,13.0,75,0.00,,BKN100,0.00,0.00,VWS V14.01,2013-06-14 09:27:00,
2013-06-14 05:32:00,66.3,58.5,29.85,ESE,107,0.0,4.0,76,0.00,,BKN100,0.00,0.00,VWS V14.01,2013-06-14 09:32:00,
2013-06-14 05:37:00,66.3,58.9,29.85,ESE,109,0.0,10.0,77,0.00,,BKN100,0.00,0.00,VWS V14.01,2013-06-14 09:37:00,
2013-06-14 05:42:00,66.0,58.6,29.85,ESE,109,6.0,7.0,77,0.00,,-RA,0.00,0.00,VWS V14.01,2013-06-14 09:42:00,
2013-06-14 05:47:00,65.8,58.8,29.85,ENE,65,0.0,28.0,78,0.00,,-RA,0.00,0.00,VWS V14.01,2013-06-14 09:47:00,
2013-06-14 05:52:00,65.8,58.8,29.85,ENE,69,0.0,7.0,78,0.00,,-RA,0.00,0.00,VWS V14.01,2013-06-14 09:52:00,
2013-06-14 05:57:00,65.8,58.8,29.85,ENE,68,0.0,7.0,78,0.00,,-RA,0.00,0.00,VWS V14.01,2013-06-14 09:57:00,
2013-06-14 06:02:00,66.0,59.0,29.84,NE,52,0.0,19.0,78,0.00,,OVC090,0.00,0.00,VWS V14.01,2013-06-14 10:02:00,
2013-06-14 06:07:00,66.1,59.0,29.84,ESE,112,9.0,19.0,78,0.00,,OVC090,0.00,0.00,VWS V14.01,2013-06-14 10:07:00,
2013-06-14 06:12:00,66.3,58.9,29.84,East,86,0.0,16.0,77,0.00,,OVC090,0.00,0.00,VWS V14.01,2013-06-14 10:12:00,
2013-06-14 06:17:00,66.6,58.8,29.84,ESE,114,0.0,22.0,76,0.00,,OVC090,0.00,0.00,VWS V14.01,2013-06-14 10:17:00,
2013-06-14 06:22:00,66.8,59.7,29.84,ESE,110,3.0,10.0,78,0.01,,OVC090,0.01,0.00,VWS V14.01,2013-06-14 10:22:00,
2013-06-14 06:27:00,66.6,59.5,29.84,SE,124,6.0,16.0,78,0.01,,OVC090,0.01,0.00,VWS V14.01,2013-06-14 10:27:00,
2013-06-14 06:32:00,66.4,59.7,29.82,SE,126,18.0,25.0,79,0.01,,OVC090,0.01,0.00,VWS V14.01,2013-06-14 10:32:00,
2013-06-14 06:37:00,66.4,59.7,29.82,ESE,120,0.0,25.0,79,0.01,,OVC090,0.01,0.00,VWS V14.01,2013-06-14 10:37:00,
2013-06-14 06:42:00,66.4,59.7,29.82,SE,128,9.0,31.0,79,0.01,,OVC090,0.01,0.00,VWS V14.01,2013-06-14 10:42:00,
2013-06-14 06:47:00,66.4,59.7,29.83,East,92,0.0,31.0,79,0.01,,OVC090,0.01,0.00,VWS V14.01,2013-06-14 10:47:00,
2013-06-14 06:52:00,66.4,59.7,29.83,East,92,0.0,1.0,79,0.01,,OVC090,0.01,0.00,VWS V14.01,2013-06-14 10:52:00,
2013-06-14 06:58:00,66.6,59.9,29.83,East,92,0.0,4.0,79,0.01,,OVC090,0.01,0.00,VWS V14.01,2013-06-14 10:58:00,
2013-06-14 07:03:00,66.8,60.1,29.83,ESE,103,0.0,4.0,79,0.01,,BKN050,0.01,0.00,VWS V14.01,2013-06-14 11:03:00,
2013-06-14 07:08:00,66.9,59.8,29.83,ESE,112,0.0,22.0,78,0.01,,BKN050,0.01,0.00,VWS V14.01,2013-06-14 11:08:00,
2013-06-14 07:13:00,67.1,60.0,29.83,East,95,6.0,13.0,78,0.01,,BKN050,0.01,5.00,VWS V14.01,2013-06-14 11:13:00,
2013-06-14 07:18:00,67.3,60.2,29.83,ESE,102,3.0,13.0,78,0.01,,BKN050,0.01,7.00,VWS V14.01,2013-06-14 11:18:00,
2013-06-14 07:23:00,67.3,59.8,29.83,ESE,120,9.0,10.0,77,0.00,,BKN050,0.01,11.00,VWS V14.01,2013-06-14 11:23:00,
2013-06-14 07:28:00,67.4,60.0,29.83,ESE,120,0.0,10.0,77,0.00,,BKN050,0.01,14.00,VWS V14.01,2013-06-14 11:28:00,
2013-06-14 07:33:00,67.4,60.0,29.82,ESE,109,0.0,1.0,77,0.00,,BKN050,0.01,19.00,VWS V14.01,2013-06-14 11:33:00,
2013-06-14 07:38:00,67.6,60.1,29.82,East,96,0.0,25.0,77,0.00,,BKN050,0.01,19.00,VWS V14.01,2013-06-14 11:38:00,
2013-06-14 07:43:00,67.6,60.1,29.82,East,89,0.0,4.0,77,0.00,,BKN050,0.01,19.00,VWS V14.01,2013-06-14 11:43:00,
2013-06-14 07:48:00,67.6,60.1,29.83,East,89,0.0,4.0,77,0.00,,BKN050,0.01,23.00,VWS V14.01,2013-06-14 11:48:00,
2013-06-14 07:53:00,67.8,60.3,29.83,East,83,0.0,1.0,77,0.00,,BKN050,0.01,28.00,VWS V14.01,2013-06-14 11:53:00,
2013-06-14 07:58:00,67.8,60.3,29.83,East,100,0.0,10.0,77,0.00,,BKN050,0.01,28.00,VWS V14.01,2013-06-14 11:58:00,
2013-06-14 08:03:00,67.9,60.1,29.84,East,100,0.0,1.0,76,0.00,,BKN050,0.01,30.00,VWS V14.01,2013-06-14 12:03:00,
2013-06-14 08:08:00,67.9,60.4,29.84,East,100,6.0,7.0,77,0.00,,BKN050,0.01,30.00,VWS V14.01,2013-06-14 12:08:00,
2013-06-14 08:13:00,68.1,60.3,29.84,ESE,107,0.0,7.0,76,0.00,,BKN050,0.01,49.00,VWS V14.01,2013-06-14 12:13:00,
2013-06-14 08:18:00,68.3,60.1,29.82,ESE,110,6.0,25.0,75,0.00,,BKN050,0.01,72.00,VWS V14.01,2013-06-14 12:18:00,
2013-06-14 08:23:00,68.4,60.2,29.82,ESE,123,0.0,16.0,75,0.00,,BKN050,0.01,67.00,VWS V14.01,2013-06-14 12:23:00,
2013-06-14 08:28:00,68.4,60.2,29.82,East,95,0.0,16.0,75,0.00,,BKN050,0.01,58.00,VWS V14.01,2013-06-14 12:28:00,
2013-06-14 08:33:00,68.6,60.4,29.83,East,95,0.0,1.0,75,0.00,,BKN050,0.01,48.00,VWS V14.01,2013-06-14 12:33:00,
2013-06-14 08:38:00,68.6,60.4,29.83,East,95,0.0,1.0,75,0.00,,BKN050,0.01,49.00,VWS V14.01,2013-06-14 12:38:00,
2013-06-14 08:43:00,68.6,60.4,29.83,ESE,110,6.0,7.0,75,0.00,,BKN050,0.01,51.00,VWS V14.01,2013-06-14 12:43:00,
2013-06-14 08:48:00,68.6,60.4,29.82,ESE,116,0.0,16.0,75,0.00,,BKN050,0.01,49.00,VWS V14.01,2013-06-14 12:48:00,
2013-06-14 08:53:00,68.6,60.4,29.82,South,186,0.0,22.0,75,0.00,,BKN050,0.01,51.00,VWS V14.01,2013-06-14 12:53:00,
2013-06-14 08:58:00,68.6,60.4,29.82,NE,35,0.0,22.0,75,0.00,,BKN050,0.01,48.00,VWS V14.01,2013-06-14 12:58:00,
2013-06-14 09:03:00,68.6,60.4,29.82,ENE,72,15.0,16.0,75,0.00,,CLR,0.01,42.00,VWS V14.01,2013-06-14 13:03:00,
2013-06-14 09:08:00,68.6,60.4,29.82,ESE,116,0.0,16.0,75,0.00,,CLR,0.01,40.00,VWS V14.01,2013-06-14 13:08:00,
2013-06-14 09:13:00,68.6,60.4,29.82,SSE,155,9.0,10.0,75,0.00,,CLR,0.01,40.00,VWS V14.01,2013-06-14 13:13:00,
2013-06-14 09:18:00,68.6,60.4,29.82,ESE,112,0.0,19.0,75,0.00,,CLR,0.01,40.00,VWS V14.01,2013-06-14 13:18:00,
2013-06-14 09:23:00,68.6,60.4,29.82,South,169,3.0,13.0,75,0.00,,CLR,0.01,40.00,VWS V14.01,2013-06-14 13:23:00,
2013-06-14 09:28:00,68.6,60.7,29.82,SSE,165,0.0,13.0,76,0.00,,CLR,0.01,42.00,VWS V14.01,2013-06-14 13:28:00,
2013-06-14 09:33:00,68.6,60.7,29.82,SSW,206,0.0,1.0,76,0.00,,CLR,0.01,48.00,VWS V14.01,2013-06-14 13:33:00,
2013-06-14 09:38:00,68.8,60.9,29.82,NE,48,0.0,16.0,76,0.00,,CLR,0.01,49.00,VWS V14.01,2013-06-14 13:38:00,
2013-06-14 09:43:00,68.8,61.3,29.82,ESE,102,3.0,10.0,77,0.00,,CLR,0.01,51.00,VWS V14.01,2013-06-14 13:43:00,
2013-06-14 09:48:00,68.9,61.4,29.80,SE,124,3.0,10.0,77,0.00,,CLR,0.01,55.00,VWS V14.01,2013-06-14 13:48:00,
2013-06-14 09:53:00,69.1,61.6,29.80,ESE,119,0.0,1.0,77,0.00,,CLR,0.01,65.00,VWS V14.01,2013-06-14 13:53:00,
2013-06-14 09:58:00,69.1,61.6,29.80,ENE,68,18.0,19.0,77,0.00,,CLR,0.01,67.00,VWS V14.01,2013-06-14 13:58:00,
2013-06-14 10:03:00,69.3,61.8,29.79,ENE,76,0.0,4.0,77,0.00,,-RA,0.01,65.00,VWS V14.01,2013-06-14 14:03:00,
2013-06-14 10:08:00,69.4,61.9,29.79,ENE,76,3.0,4.0,77,0.00,,-RA,0.01,63.00,VWS V14.01,2013-06-14 14:08:00,
2013-06-14 10:13:00,69.6,62.1,29.79,SSW,200,3.0,19.0,77,0.00,,-RA,0.01,62.00,VWS V14.01,2013-06-14 14:13:00,
2013-06-14 10:18:00,69.6,62.1,29.80,SSW,213,0.0,22.0,77,0.00,,-RA,0.01,62.00,VWS V14.01,2013-06-14 14:18:00,
2013-06-14 10:23:00,69.8,62.3,29.80,East,100,9.0,16.0,77,0.00,,-RA,0.01,67.00,VWS V14.01,2013-06-14 14:23:00,
2013-06-14 10:28:00,69.9,62.4,29.80,ESE,113,0.0,16.0,77,0.00,,-RA,0.01,65.00,VWS V14.01,2013-06-14 14:28:00,
2013-06-14 10:33:00,69.9,62.7,29.79,SSE,148,3.0,7.0,78,0.00,,-RA,0.01,69.00,VWS V14.01,2013-06-14 14:33:00,
2013-06-14 10:38:00,69.9,62.7,29.79,ESE,120,3.0,16.0,78,0.00,,-RA,0.01,74.00,VWS V14.01,2013-06-14 14:38:00,
2013-06-14 10:43:00,69.9,62.7,29.79,NW,305,3.0,10.0,78,0.00,,-RA,0.01,72.00,VWS V14.01,2013-06-14 14:43:00,
2013-06-14 10:48:00,69.9,62.7,29.79,East,97,0.0,16.0,78,0.00,,-RA,0.01,77.00,VWS V14.01,2013-06-14 14:48:00,
2013-06-14 10:53:00,69.9,63.1,29.79,SE,133,3.0,13.0,79,0.00,,-RA,0.01,90.00,VWS V14.01,2013-06-14 14:53:00,
2013-06-14 10:58:00,70.1,63.3,29.79,SSE,154,3.0,22.0,79,0.00,,-RA,0.01,118.00,VWS V14.01,2013-06-14 14:58:00,
2013-06-14 11:03:00,70.3,63.8,29.73,ESE,123,0.0,22.0,80,0.00,,-RA,0.01,167.00,VWS V14.01,2013-06-14 15:03:00,
2013-06-14 11:08:00,70.4,63.9,29.73,SSW,196,3.0,22.0,80,0.00,,-RA,0.01,202.00,VWS V14.01,2013-06-14 15:08:00,
2013-06-14 11:13:00,70.9,64.4,29.73,SSE,161,0.0,22.0,80,0.00,,-RA,0.01,220.00,VWS V14.01,2013-06-14 15:13:00,
2013-06-14 11:18:00,71.3,64.8,29.74,ESE,110,0.0,22.0,80,0.00,,-RA,0.01,208.00,VWS V14.01,2013-06-14 15:18:00,
2013-06-14 11:23:00,71.6,64.8,29.74,SE,133,0.0,13.0,79,0.00,,-RA,0.01,190.00,VWS V14.01,2013-06-14 15:23:00,
2013-06-14 11:28:00,72.0,65.1,29.74,SE,141,6.0,16.0,79,0.00,,-RA,0.01,223.00,VWS V14.01,2013-06-14 15:28:00,
2013-06-14 11:33:00,72.3,65.1,29.73,South,188,3.0,19.0,78,0.00,,-RA,0.01,234.00,VWS V14.01,2013-06-14 15:33:00,
2013-06-14 11:38:00,72.8,65.6,29.73,SSE,150,0.0,19.0,78,0.00,,-RA,0.01,253.00,VWS V14.01,2013-06-14 15:38:00,
2013-06-14 11:43:00,73.2,65.9,29.73,South,176,6.0,7.0,78,0.00,,-RA,0.01,287.00,VWS V14.01,2013-06-14 15:43:00,
2013-06-14 11:48:00,73.5,66.2,29.72,NE,41,6.0,13.0,78,0.00,,-RA,0.01,310.00,VWS V14.01,2013-06-14 15:48:00,
2013-06-14 11:53:00,74.0,66.3,29.72,South,186,0.0,16.0,77,0.00,,-RA,0.01,348.00,VWS V14.01,2013-06-14 15:53:00,
2013-06-14 11:58:00,74.6,66.5,29.72,South,176,9.0,34.0,76,0.00,,-RA,0.01,417.00,VWS V14.01,2013-06-14 15:58:00,
2013-06-14 12:03:00,75.1,66.6,29.70,SE,128,0.0,34.0,75,0.00,,CLR,0.01,452.00,VWS V14.01,2013-06-14 16:03:00,
2013-06-14 12:08:00,75.6,67.1,29.70,SSE,151,9.0,34.0,75,0.00,,CLR,0.01,507.00,VWS V14.01,2013-06-14 16:08:00,
2013-06-14 12:13:00,76.3,67.4,29.70,ESE,119,6.0,73.0,74,0.00,,CLR,0.01,552.00,VWS V14.01,2013-06-14 16:13:00,
2013-06-14 12:18:00,76.8,67.9,29.70,South,169,3.0,73.0,74,0.00,,CLR,0.01,579.00,VWS V14.01,2013-06-14 16:18:00,
2013-06-14 12:23:00,77.7,68.4,29.70,SSE,151,6.0,31.0,73,0.00,,CLR,0.01,406.00,VWS V14.01,2013-06-14 16:23:00,
2013-06-14 12:28:00,78.3,68.5,29.70,South,176,3.0,31.0,72,0.00,,CLR,0.01,348.00,VWS V14.01,2013-06-14 16:28:00,
2013-06-14 12:33:00,78.6,68.8,29.70,SE,141,0.0,19.0,72,0.00,,CLR,0.01,352.00,VWS V14.01,2013-06-14 16:33:00,
2013-06-14 12:38:00,79.0,68.8,29.70,SE,130,18.0,31.0,71,0.00,,CLR,0.01,408.00,VWS V14.01,2013-06-14 16:38:00,
2013-06-14 12:43:00,79.4,68.8,29.70,SSW,195,3.0,19.0,70,0.00,,CLR,0.01,348.00,VWS V14.01,2013-06-14 16:43:00,
2013-06-14 12:48:00,79.8,69.2,29.71,East,96,0.0,19.0,70,0.00,,CLR,0.01,368.00,VWS V14.01,2013-06-14 16:48:00,
2013-06-14 12:53:00,80.1,69.4,29.71,East,96,0.0,1.0,70,0.00,,CLR,0.01,415.00,VWS V14.01,2013-06-14 16:53:00,
2013-06-14 12:58:00,80.3,69.6,29.71,SSE,161,0.0,16.0,70,0.00,,CLR,0.01,575.00,VWS V14.01,2013-06-14 16:58:00,
2013-06-14 13:03:00,80.9,69.8,29.73,ESE,123,0.0,16.0,69,0.00,,CLR,0.01,480.00,VWS V14.01,2013-06-14 17:03:00,
2013-06-14 13:08:00,81.6,70.9,29.73,ESE,123,0.0,16.0,70,0.00,,CLR,0.01,709.00,VWS V14.01,2013-06-14 17:08:00,
2013-06-14 13:13:00,82.4,70.3,29.73,ESE,102,0.0,7.0,67,0.00,,CLR,0.01,845.00,VWS V14.01,2013-06-14 17:13:00,
2013-06-14 13:18:00,82.8,69.8,29.73,ENE,72,6.0,19.0,65,0.00,,CLR,0.01,498.00,VWS V14.01,2013-06-14 17:18:00,
2013-06-14 13:23:00,83.2,70.7,29.73,ESE,106,0.0,1.0,66,0.00,,CLR,0.01,530.00,VWS V14.01,2013-06-14 17:23:00,
2013-06-14 13:28:00,83.6,70.6,29.73,SE,126,0.0,7.0,65,0.00,,CLR,0.01,572.00,VWS V14.01,2013-06-14 17:28:00,
2013-06-14 13:33:00,83.8,70.3,29.72,ESE,109,0.0,13.0,64,0.00,,CLR,0.01,628.00,VWS V14.01,2013-06-14 17:33:00,
2013-06-14 13:38:00,84.0,70.5,29.72,ESE,106,0.0,19.0,64,0.00,,CLR,0.01,639.00,VWS V14.01,2013-06-14 17:38:00,
2013-06-14 13:43:00,84.1,70.2,29.72,SSE,152,0.0,19.0,63,0.00,,CLR,0.01,526.00,VWS V14.01,2013-06-14 17:43:00,
2013-06-14 13:48:00,84.5,70.1,29.72,South,176,6.0,25.0,62,0.00,,CLR,0.01,551.00,VWS V14.01,2013-06-14 17:48:00,
2013-06-14 13:53:00,84.5,69.6,29.72,North,8,0.0,19.0,61,0.00,,CLR,0.01,683.00,VWS V14.01,2013-06-14 17:53:00,
2013-06-14 13:58:00,84.9,70.0,29.72,WSW,258,9.0,22.0,61,0.00,,CLR,0.01,677.00,VWS V14.01,2013-06-14 17:58:00,
2013-06-14 14:03:00,85.1,69.7,29.72,East,95,12.0,22.0,60,0.00,,CLR,0.01,577.00,VWS V14.01,2013-06-14 18:03:00,
2013-06-14 14:08:00,85.3,69.8,29.72,South,178,9.0,25.0,60,0.00,,CLR,0.01,933.00,VWS V14.01,2013-06-14 18:08:00,
2013-06-14 14:13:00,85.7,70.2,29.72,ESE,121,0.0,25.0,60,0.00,,CLR,0.01,901.00,VWS V14.01,2013-06-14 18:13:00,
2013-06-14 14:18:00,86.1,71.1,29.71,SE,138,24.0,25.0,61,0.00,,CLR,0.01,957.00,VWS V14.01,2013-06-14 18:18:00,
2013-06-14 14:23:00,86.5,70.0,29.71,South,172,6.0,25.0,58,0.00,,CLR,0.01,933.00,VWS V14.01,2013-06-14 18:23:00,
2013-06-14 14:28:00,86.7,70.2,29.71,ESE,112,3.0,34.0,58,0.00,,CLR,0.01,915.00,VWS V14.01,2013-06-14 18:28:00,
2013-06-14 14:33:00,87.0,70.4,29.71,SE,128,6.0,34.0,58,0.00,,CLR,0.01,908.00,VWS V14.01,2013-06-14 18:33:00,
2013-06-14 14:38:00,86.7,70.7,29.71,SE,131,0.0,34.0,59,0.00,,CLR,0.01,917.00,VWS V14.01,2013-06-14 18:38:00,
2013-06-14 14:43:00,87.0,70.9,29.71,South,176,9.0,25.0,59,0.00,,CLR,0.01,839.00,VWS V14.01,2013-06-14 18:43:00,
2013-06-14 14:48:00,87.0,70.9,29.70,ESE,120,3.0,34.0,59,0.00,,CLR,0.01,978.00,VWS V14.01,2013-06-14 18:48:00,
2013-06-14 14:53:00,87.2,70.6,29.70,SE,134,6.0,19.0,58,0.00,,CLR,0.01,957.00,VWS V14.01,2013-06-14 18:53:00,
2013-06-14 14:58:00,87.6,70.5,29.70,SE,128,0.0,25.0,57,0.00,,CLR,0.01,908.00,VWS V14.01,2013-06-14 18:58:00,
2013-06-14 15:03:00,87.4,71.3,29.70,SE,145,9.0,22.0,59,0.00,,CLR,0.01,899.00,VWS V14.01,2013-06-14 19:03:00,
2013-06-14 15:08:00,87.0,71.9,29.70,SE,141,0.0,31.0,61,0.00,,CLR,0.01,889.00,VWS V14.01,2013-06-14 19:08:00,
2013-06-14 15:13:00,86.7,71.2,29.70,SE,137,6.0,25.0,60,0.00,,CLR,0.01,894.00,VWS V14.01,2013-06-14 19:13:00,
2013-06-14 15:18:00,86.7,71.7,29.69,South,189,0.0,34.0,61,0.00,,CLR,0.01,834.00,VWS V14.01,2013-06-14 19:18:00,
2013-06-14 15:23:00,87.0,70.9,29.69,ESE,110,18.0,22.0,59,0.00,,CLR,0.01,873.00,VWS V14.01,2013-06-14 19:23:00,
2013-06-14 15:28:00,87.2,70.6,29.69,ENE,76,6.0,25.0,58,0.00,,CLR,0.01,878.00,VWS V14.01,2013-06-14 19:28:00,
2013-06-14 15:33:00,88.0,72.4,29.69,East,79,0.0,19.0,60,0.00,,CLR,0.01,869.00,VWS V14.01,2013-06-14 19:33:00,
2013-06-14 15:38:00,87.8,71.2,29.69,SE,136,3.0,22.0,58,0.00,,CLR,0.01,866.00,VWS V14.01,2013-06-14 19:38:00,
2013-06-14 15:43:00,88.0,71.9,29.69,East,88,6.0,19.0,59,0.00,,CLR,0.01,866.00,VWS V14.01,2013-06-14 19:43:00,
2013-06-14 15:48:00,88.0,71.9,29.68,ESE,119,12.0,25.0,59,0.00,,CLR,0.01,857.00,VWS V14.01,2013-06-14 19:48:00,
2013-06-14 15:53:00,88.2,71.1,29.68,East,88,12.0,19.0,57,0.00,,CLR,0.01,848.00,VWS V14.01,2013-06-14 19:53:00,
2013-06-14 15:58:00,88.2,72.1,29.68,South,182,0.0,34.0,59,0.00,,CLR,0.01,845.00,VWS V14.01,2013-06-14 19:58:00,
2013-06-14 16:03:00,88.0,71.9,29.68,ENE,68,18.0,19.0,59,0.00,,CLR,0.01,834.00,VWS V14.01,2013-06-14 20:03:00,
2013-06-14 16:08:00,88.0,71.4,29.68,South,176,15.0,28.0,58,0.00,,CLR,0.01,839.00,VWS V14.01,2013-06-14 20:08:00,
2013-06-14 16:13:00,88.4,71.8,29.68,ESE,106,3.0,25.0,58,0.00,,CLR,0.01,825.00,VWS V14.01,2013-06-14 20:13:00,
2013-06-14 16:18:00,88.4,71.8,29.68,East,86,12.0,43.0,58,0.00,,CLR,0.01,823.00,VWS V14.01,2013-06-14 20:18:00,
2013-06-14 16:23:00,88.6,72.4,29.68,South,181,12.0,19.0,59,0.00,,CLR,0.01,809.00,VWS V14.01,2013-06-14 20:23:00,
2013-06-14 16:28:00,89.3,73.6,29.68,SE,138,3.0,19.0,60,0.00,,CLR,0.01,801.00,VWS V14.01,2013-06-14 20:28:00,
2013-06-14 16:33:00,89.0,72.8,29.67,SE,131,0.0,25.0,59,0.00,,CLR,0.01,794.00,VWS V14.01,2013-06-14 20:33:00,
2013-06-14 16:38:00,89.0,71.8,29.67,ESE,104,12.0,25.0,57,0.00,,CLR,0.01,787.00,VWS V14.01,2013-06-14 20:38:00,
2013-06-14 16:43:00,88.6,72.4,29.67,SSE,157,0.0,34.0,59,0.00,,CLR,0.01,772.00,VWS V14.01,2013-06-14 20:43:00,
2013-06-14 16:48:00,89.0,72.8,29.66,ESE,109,0.0,34.0,59,0.00,,CLR,0.01,755.00,VWS V14.01,2013-06-14 20:48:00,
2013-06-14 16:53:00,89.3,73.1,29.66,SE,131,12.0,19.0,59,0.00,,CLR,0.01,744.00,VWS V14.01,2013-06-14 20:53:00,
2013-06-14 16:58:00,89.3,72.6,29.66,SE,126,0.0,19.0,58,0.00,,CLR,0.01,750.00,VWS V14.01,2013-06-14 20:58:00,
2013-06-14 17:03:00,89.5,72.8,29.66,ESE,102,0.0,7.0,58,0.00,,CLR,0.01,727.00,VWS V14.01,2013-06-14 21:03:00,
2013-06-14 17:08:00,89.5,73.3,29.66,ESE,117,0.0,16.0,59,0.00,,CLR,0.01,823.00,VWS V14.01,2013-06-14 21:08:00,
2013-06-14 17:13:00,89.3,72.6,29.66,ESE,103,3.0,28.0,58,0.00,,CLR,0.01,758.00,VWS V14.01,2013-06-14 21:13:00,
2013-06-14 17:18:00,88.0,72.4,29.65,ESE,121,3.0,28.0,60,0.00,,CLR,0.01,686.00,VWS V14.01,2013-06-14 21:18:00,
2013-06-14 17:23:00,88.6,72.9,29.65,East,99,0.0,10.0,60,0.00,,CLR,0.01,683.00,VWS V14.01,2013-06-14 21:23:00,
2013-06-14 17:28:00,89.0,73.3,29.65,East,92,0.0,25.0,60,0.00,,CLR,0.01,669.00,VWS V14.01,2013-06-14 21:28:00,
2013-06-14 17:33:00,89.3,73.1,29.64,SE,145,0.0,16.0,59,0.00,,CLR,0.01,658.00,VWS V14.01,2013-06-14 21:33:00,
2013-06-14 17:38:00,89.3,73.1,29.64,East,95,0.0,31.0,59,0.00,,CLR,0.01,640.00,VWS V14.01,2013-06-14 21:38:00,
2013-06-14 17:43:00,88.8,73.1,29.64,SE,133,0.0,1.0,60,0.00,,CLR,0.01,626.00,VWS V14.01,2013-06-14 21:43:00,
2013-06-14 17:48:00,89.3,73.1,29.64,ESE,112,0.0,4.0,59,0.00,,CLR,0.01,614.00,VWS V14.01,2013-06-14 21:48:00,
2013-06-14 17:53:00,88.8,73.6,29.64,SE,124,18.0,19.0,61,0.00,,CLR,0.01,600.00,VWS V14.01,2013-06-14 21:53:00,
2013-06-14 17:58:00,89.0,73.3,29.64,ENE,69,6.0,37.0,60,0.00,,CLR,0.01,586.00,VWS V14.01,2013-06-14 21:58:00,
2013-06-14 18:03:00,89.3,73.1,29.64,ESE,110,0.0,10.0,59,0.00,,CLR,0.01,577.00,VWS V14.01,2013-06-14 22:03:00,
2013-06-14 18:08:00,89.3,73.1,29.64,SE,136,0.0,34.0,59,0.00,,CLR,0.01,565.00,VWS V14.01,2013-06-14 22:08:00,
2013-06-14 18:13:00,89.0,72.8,29.64,SSE,148,21.0,22.0,59,0.00,,CLR,0.01,560.00,VWS V14.01,2013-06-14 22:13:00,
2013-06-14 18:18:00,89.3,73.1,29.63,ESE,109,0.0,22.0,59,0.00,,CLR,0.01,491.00,VWS V14.01,2013-06-14 22:18:00,
2013-06-14 18:23:00,89.5,73.3,29.63,ESE,121,9.0,25.0,59,0.00,,CLR,0.01,544.00,VWS V14.01,2013-06-14 22:23:00,
2013-06-14 18:28:00,89.5,73.3,29.63,ESE,123,0.0,37.0,59,0.00,,CLR,0.01,412.00,VWS V14.01,2013-06-14 22:28:00,
2013-06-14 18:33:00,89.5,73.3,29.62,ENE,75,15.0,22.0,59,0.00,,CLR,0.01,486.00,VWS V14.01,2013-06-14 22:33:00,
2013-06-14 18:38:00,89.7,73.0,29.62,SE,136,0.0,22.0,58,0.00,,CLR,0.01,509.00,VWS V14.01,2013-06-14 22:38:00,
2013-06-14 18:43:00,89.9,73.7,29.62,ESE,120,0.0,22.0,59,0.00,,CLR,0.01,311.00,VWS V14.01,2013-06-14 22:43:00,
2013-06-14 18:48:00,89.5,73.3,29.61,SSE,151,0.0,22.0,59,0.00,,CLR,0.01,329.00,VWS V14.01,2013-06-14 22:48:00,
2013-06-14 18:53:00,89.3,73.6,29.61,ESE,110,9.0,16.0,60,0.00,,CLR,0.01,278.00,VWS V14.01,2013-06-14 22:53:00,
2013-06-14 18:58:00,89.3,73.6,29.61,ESE,114,0.0,19.0,60,0.00,,CLR,0.01,301.00,VWS V14.01,2013-06-14 22:58:00,
2013-06-14 19:03:00,89.3,74.1,29.61,ESE,104,0.0,25.0,61,0.00,,CLR,0.01,310.00,VWS V14.01,2013-06-14 23:03:00,
2013-06-14 19:08:00,89.3,74.1,29.61,ESE,114,9.0,25.0,61,0.00,,CLR,0.01,246.00,VWS V14.01,2013-06-14 23:08:00,
2013-06-14 19:13:00,89.5,72.8,29.61,ESE,106,15.0,19.0,58,0.00,,CLR,0.01,209.00,VWS V14.01,2013-06-14 23:13:00,
2013-06-14 19:18:00,89.5,72.8,29.60,East,95,0.0,19.0,58,0.00,,CLR,0.01,135.00,VWS V14.01,2013-06-14 23:18:00,
2013-06-14 19:23:00,89.3,72.6,29.60,ESE,121,0.0,7.0,58,0.00,,CLR,0.01,132.00,VWS V14.01,2013-06-14 23:23:00,
2013-06-14 19:28:00,89.5,72.8,29.60,SE,145,0.0,16.0,58,0.00,,CLR,0.01,130.00,VWS V14.01,2013-06-14 23:28:00,
2013-06-14 19:33:00,89.0,72.8,29.60,SE,140,0.0,7.0,59,0.00,,CLR,0.01,130.00,VWS V14.01,2013-06-14 23:33:00,
2013-06-14 19:38:00,89.3,72.6,29.60,ENE,73,0.0,22.0,58,0.00,,CLR,0.01,127.00,VWS V14.01,2013-06-14 23:38:00,
2013-06-14 19:43:00,89.0,72.3,29.60,ESE,107,6.0,22.0,58,0.00,,CLR,0.01,118.00,VWS V14.01,2013-06-14 23:43:00,
2013-06-14 19:48:00,88.8,72.6,29.59,SSE,151,0.0,22.0,59,0.00,,CLR,0.01,109.00,VWS V14.01,2013-06-14 23:48:00,
2013-06-14 19:53:00,89.0,72.8,29.59,SE,136,0.0,16.0,59,0.00,,CLR,0.01,99.00,VWS V14.01,2013-06-14 23:53:00,
2013-06-14 19:58:00,88.8,73.1,29.59,SSE,157,0.0,16.0,60,0.00,,CLR,0.01,93.00,VWS V14.01,2013-06-14 23:58:00,
2013-06-14 20:03:00,88.4,73.2,29.58,ESE,109,0.0,7.0,61,0.00,,CLR,0.01,88.00,VWS V14.01,2013-06-15 00:03:00,
2013-06-14 20:08:00,88.6,72.9,29.58,South,184,0.0,25.0,60,0.00,,CLR,0.01,79.00,VWS V14.01,2013-06-15 00:08:00,
2013-06-14 20:13:00,88.6,72.9,29.58,East,96,0.0,7.0,60,0.00,,CLR,0.01,69.00,VWS V14.01,2013-06-15 00:13:00,
2013-06-14 20:18:00,88.6,72.9,29.58,SE,136,0.0,22.0,60,0.00,,CLR,0.01,56.00,VWS V14.01,2013-06-15 00:18:00,
2013-06-14 20:23:00,88.4,72.8,29.58,ESE,107,0.0,22.0,60,0.00,,CLR,0.01,48.00,VWS V14.01,2013-06-15 00:23:00,
2013-06-14 20:28:00,88.4,72.8,29.58,NE,40,0.0,22.0,60,0.00,,CLR,0.01,37.00,VWS V14.01,2013-06-15 00:28:00,
2013-06-14 20:33:00,87.8,72.7,29.59,SE,126,0.0,1.0,61,0.00,,CLR,0.01,35.00,VWS V14.01,2013-06-15 00:33:00,
2013-06-14 20:38:00,87.8,73.2,29.59,SE,131,0.0,22.0,62,0.00,,CLR,0.01,25.00,VWS V14.01,2013-06-15 00:38:00,
2013-06-14 20:43:00,88.0,72.9,29.59,SSW,196,0.0,22.0,61,0.00,,CLR,0.01,16.00,VWS V14.01,2013-06-15 00:43:00,
2013-06-14 20:48:00,87.6,73.0,29.58,South,172,0.0,22.0,62,0.00,,CLR,0.01,12.00,VWS V14.01,2013-06-15 00:48:00,
2013-06-14 20:53:00,87.4,72.8,29.58,South,175,0.0,1.0,62,0.00,,CLR,0.01,11.00,VWS V14.01,2013-06-15 00:53:00,
2013-06-14 20:58:00,87.6,73.0,29.58,West,265,12.0,22.0,62,0.00,,CLR,0.01,7.00,VWS V14.01,2013-06-15 00:58:00,
2013-06-14 21:03:00,87.0,66.1,29.63,West,271,0.0,25.0,50,0.00,,,0.01,0.00,VWS V14.01,2013-06-15 01:03:00,
2013-06-14 21:08:00,85.9,61.5,29.63,NNW,347,21.0,25.0,44,0.00,,,0.01,0.00,VWS V14.01,2013-06-15 01:08:00,
2013-06-14 21:13:00,86.5,67.3,29.63,North,356,21.0,37.0,53,0.00,,,0.01,0.00,VWS V14.01,2013-06-15 01:13:00,
2013-06-14 21:18:00,87.0,63.7,29.63,West,281,0.0,37.0,46,0.00,,,0.01,0.00,VWS V14.01,2013-06-15 01:18:00,
2013-06-14 21:23:00,86.5,60.0,29.63,West,275,24.0,25.0,41,0.00,,,0.01,0.00,VWS V14.01,2013-06-15 01:23:00,
2013-06-14 21:28:00,85.9,57.4,29.63,SW,233,0.0,25.0,38,0.00,,,0.01,0.00,VWS V14.01,2013-06-15 01:28:00,
2013-06-14 21:33:00,84.9,58.6,29.67,SW,216,0.0,1.0,41,0.00,,,0.01,0.00,VWS V14.01,2013-06-15 01:33:00,
2013-06-14 21:38:00,84.5,57.5,29.67,West,272,0.0,10.0,40,0.00,,,0.01,0.00,VWS V14.01,2013-06-15 01:38:00,
2013-06-14 21:43:00,84.1,57.2,29.67,West,272,0.0,1.0,40,0.00,,,0.01,0.00,VWS V14.01,2013-06-15 01:43:00,
2013-06-14 21:48:00,83.6,58.1,29.67,West,272,0.0,1.0,42,0.00,,,0.01,0.00,VWS V14.01,2013-06-15 01:48:00,
2013-06-14 21:53:00,83.0,58.2,29.67,West,272,0.0,1.0,43,0.00,,,0.01,0.00,VWS V14.01,2013-06-15 01:53:00,
2013-06-14 21:58:00,82.6,59.8,29.67,West,272,0.0,1.0,46,0.00,,OVC100,0.01,0.00,VWS V14.01,2013-06-15 01:58:00,
2013-06-14 22:03:00,82.2,60.0,29.71,West,272,0.0,1.0,47,0.00,,OVC100,0.01,0.00,VWS V14.01,2013-06-15 02:03:00,
2013-06-14 22:08:00,81.8,59.0,29.71,West,277,0.0,10.0,46,0.00,,OVC100,0.01,0.00,VWS V14.01,2013-06-15 02:08:00,
2013-06-14 22:13:00,80.9,59.4,29.71,SSE,168,0.0,16.0,48,0.00,,OVC100,0.01,0.00,VWS V14.01,2013-06-15 02:13:00,
2013-06-14 22:18:00,79.9,60.2,29.74,East,90,18.0,19.0,51,0.00,,OVC100,0.01,0.00,VWS V14.01,2013-06-15 02:18:00,
2013-06-14 22:23:00,78.8,60.2,29.74,NNW,344,0.0,16.0,53,0.00,,OVC100,0.01,0.00,VWS V14.01,2013-06-15 02:23:00,
2013-06-14 22:28:00,78.8,60.2,29.74,ESE,106,6.0,16.0,53,0.00,,OVC100,0.01,0.00,VWS V14.01,2013-06-15 02:28:00,
2013-06-14 22:33:00,78.6,60.6,29.73,South,171,0.0,4.0,54,0.00,,OVC100,0.01,0.00,VWS V14.01,2013-06-15 02:33:00,
2013-06-14 22:38:00,78.6,61.1,29.73,ESE,121,6.0,19.0,55,0.00,,OVC100,0.01,0.00,VWS V14.01,2013-06-15 02:38:00,
2013-06-14 22:43:00,78.5,61.5,29.73,SE,128,15.0,25.0,56,0.00,,OVC100,0.01,0.00,VWS V14.01,2013-06-15 02:43:00,
2013-06-14 22:48:00,78.1,62.1,29.74,East,93,0.0,25.0,58,0.00,,OVC100,0.01,0.00,VWS V14.01,2013-06-15 02:48:00,
2013-06-14 22:53:00,77.6,62.2,29.74,SSW,199,0.0,16.0,59,0.00,,OVC100,0.01,0.00,VWS V14.01,2013-06-15 02:53:00,
2013-06-14 22:58:00,77.2,62.7,29.74,East,80,0.0,22.0,61,0.00,,OVC100,0.01,0.00,VWS V14.01,2013-06-15 02:58:00,
2013-06-14 23:03:00,76.5,62.5,29.74,East,85,0.0,22.0,62,0.00,,BKN110,0.01,0.00,VWS V14.01,2013-06-15 03:03:00,
2013-06-14 23:08:00,76.1,62.6,29.74,SSE,154,0.0,22.0,63,0.00,,BKN110,0.01,0.00,VWS V14.01,2013-06-15 03:08:00,
2013-06-14 23:13:00,75.8,62.8,29.74,ESE,120,3.0,16.0,64,0.00,,BKN110,0.01,0.00,VWS V14.01,2013-06-15 03:13:00,
2013-06-14 23:18:00,75.4,62.8,29.74,ENE,69,0.0,16.0,65,0.00,,BKN110,0.01,0.00,VWS V14.01,2013-06-15 03:18:00,
2013-06-14 23:23:00,75.3,63.2,29.74,ENE,69,0.0,1.0,66,0.00,,BKN110,0.01,0.00,VWS V14.01,2013-06-15 03:23:00,
2013-06-14 23:28:00,75.1,63.0,29.74,ESE,123,0.0,4.0,66,0.00,,BKN110,0.01,0.00,VWS V14.01,2013-06-15 03:28:00,
2013-06-14 23:33:00,74.9,62.8,29.76,NE,52,3.0,10.0,66,0.00,,BKN110,0.01,0.00,VWS V14.01,2013-06-15 03:33:00,
2013-06-14 23:38:00,74.7,63.5,29.76,ENE,73,18.0,22.0,68,0.00,,BKN110,0.01,0.00,VWS V14.01,2013-06-15 03:38:00,
2013-06-14 23:43:00,74.6,63.3,29.76,East,82,0.0,10.0,68,0.00,,BKN110,0.01,0.00,VWS V14.01,2013-06-15 03:43:00,
2013-06-14 23:48:00,74.4,63.2,29.75,East,85,0.0,16.0,68,0.00,,BKN110,0.01,0.00,VWS V14.01,2013-06-15 03:48:00,
2013-06-14 23:53:00,74.4,62.7,29.75,NE,47,0.0,10.0,67,0.00,,BKN110,0.01,0.00,VWS V14.01,2013-06-15 03:53:00,
2013-06-14 23:58:00,74.4,62.3,29.75,East,79,15.0,22.0,66,0.00,,BKN110,0.01,0.00,VWS V14.01,2013-06-15 03:58:00,